createdAt,value
2023-03-26T00:00:20.063Z,10.89
2023-03-26T00:02:20.156Z,10.81
2023-03-26T00:05:21.573Z,10.69
2023-03-26T00:07:21.543Z,10.66
2023-03-26T00:09:21.566Z,10.56
2023-03-26T00:11:21.522Z,10.66
2023-03-26T00:13:21.588Z,10.76
2023-03-26T00:15:21.566Z,10.89
2023-03-26T00:17:21.524Z,10.88
2023-03-26T00:20:46.555Z,10.84
2023-03-26T00:22:46.511Z,10.88
2023-03-26T00:24:46.546Z,10.97
2023-03-26T00:26:46.529Z,10.96
2023-03-26T00:28:46.585Z,10.91
2023-03-26T00:30:46.640Z,10.97
2023-03-26T00:32:53.285Z,10.98
2023-03-26T00:36:23.994Z,10.74
2023-03-26T00:38:23.975Z,10.78
2023-03-26T00:40:23.920Z,10.3
2023-03-26T00:42:23.933Z,10.32
2023-03-26T00:44:23.932Z,10.41
2023-03-26T00:46:23.977Z,10.47
2023-03-26T00:48:31.459Z,10.4
2023-03-26T00:50:45.030Z,10.45
2023-03-26T00:52:44.961Z,10.48
2023-03-26T00:54:44.960Z,10.43
2023-03-26T00:56:45.049Z,10.38
2023-03-26T00:58:44.977Z,10.29
2023-03-26T01:00:46.761Z,10.32
2023-03-26T01:02:45.313Z,10.27
2023-03-26T01:04:45.168Z,10.19
2023-03-26T01:06:36.924Z,10.11
2023-03-26T01:08:36.506Z,10.05
2023-03-26T01:10:36.559Z,10.18
2023-03-26T01:12:36.520Z,10.29
2023-03-26T01:14:36.527Z,10.17
2023-03-26T01:16:36.523Z,10.17
2023-03-26T01:18:36.522Z,10.08
2023-03-26T01:21:02.764Z,10.01
2023-03-26T01:23:02.719Z,10.11
2023-03-26T01:25:02.733Z,10.17
2023-03-26T01:27:02.710Z,10.18
2023-03-26T01:29:02.725Z,10.22
2023-03-26T01:31:02.759Z,10.23
2023-03-26T01:33:02.830Z,10.15
2023-03-26T01:35:02.719Z,10.15
2023-03-26T01:36:51.634Z,10.02
2023-03-26T01:38:51.639Z,9.95
2023-03-26T01:40:51.601Z,9.9
2023-03-26T01:42:51.665Z,9.96
2023-03-26T01:44:51.596Z,10
2023-03-26T01:46:51.631Z,9.86
2023-03-26T01:48:51.682Z,9.73
2023-03-26T01:51:38.404Z,9.83
2023-03-26T01:53:38.417Z,9.89
2023-03-26T01:55:38.459Z,9.9
2023-03-26T01:57:38.426Z,9.86
2023-03-26T01:59:38.444Z,9.86
2023-03-26T02:01:38.429Z,9.77
2023-03-26T02:03:38.476Z,9.79
2023-03-26T02:06:52.982Z,9.66
2023-03-26T02:08:52.931Z,9.62
2023-03-26T02:10:52.981Z,9.57
2023-03-26T02:12:52.993Z,9.49
2023-03-26T02:14:52.918Z,9.58
2023-03-26T02:16:52.920Z,9.52
2023-03-26T02:18:52.939Z,9.52
2023-03-26T02:22:17.032Z,9.38
2023-03-26T02:24:16.953Z,9.49
2023-03-26T02:26:17.005Z,9.45
2023-03-26T02:28:16.982Z,9.41
2023-03-26T02:30:16.955Z,9.39
2023-03-26T02:32:16.991Z,9.31
2023-03-26T02:34:16.964Z,9.15
2023-03-26T02:37:02.613Z,8.99
2023-03-26T02:39:02.738Z,8.96
2023-03-26T02:41:02.604Z,9.01
2023-03-26T02:43:02.602Z,8.94
2023-03-26T02:45:02.641Z,8.9
2023-03-26T02:47:02.601Z,8.93
2023-03-26T02:49:02.640Z,8.88
2023-03-26T02:52:16.774Z,8.68
2023-03-26T02:54:16.825Z,8.64
2023-03-26T02:56:16.771Z,8.56
2023-03-26T02:58:16.813Z,8.6
2023-03-26T03:00:16.853Z,8.6
2023-03-26T03:02:16.905Z,8.68
2023-03-26T03:04:16.792Z,8.51
2023-03-26T03:07:41.952Z,8.3
2023-03-26T03:09:41.907Z,8.13
2023-03-26T03:11:41.895Z,8.3
2023-03-26T03:13:41.907Z,8.33
2023-03-26T03:15:41.945Z,8.28
2023-03-26T03:17:41.948Z,8.18
2023-03-26T03:19:41.887Z,8.17
2023-03-26T03:22:49.493Z,8.05
2023-03-26T03:24:49.479Z,8.12
2023-03-26T03:26:49.480Z,8.14
2023-03-26T03:28:49.457Z,8.2
2023-03-26T03:30:49.468Z,8.3
2023-03-26T03:32:49.516Z,8.41
2023-03-26T03:34:49.464Z,8.41
2023-03-26T03:37:30.582Z,8.44
2023-03-26T03:39:30.520Z,8.41
2023-03-26T03:41:30.813Z,8.28
2023-03-26T03:43:30.521Z,8.33
2023-03-26T03:45:30.517Z,8.43
2023-03-26T03:47:30.529Z,8.43
2023-03-26T03:49:30.578Z,8.36
2023-03-26T03:51:30.522Z,8.38
2023-03-26T03:52:54.360Z,8.25
2023-03-26T03:54:54.378Z,8.09
2023-03-26T03:56:54.453Z,8.04
2023-03-26T03:58:54.520Z,7.96
2023-03-26T04:00:54.565Z,7.97
2023-03-26T04:02:54.879Z,7.89
2023-03-26T04:04:54.383Z,7.91
2023-03-26T04:08:38.097Z,7.9
2023-03-26T04:10:38.191Z,7.9
2023-03-26T04:12:38.788Z,8.09
2023-03-26T04:14:38.145Z,8.03
2023-03-26T04:16:38.138Z,8.26
2023-03-26T04:18:38.132Z,8.2
2023-03-26T04:20:38.041Z,8.16
2023-03-26T04:23:24.722Z,8.3
2023-03-26T04:25:24.597Z,8.29
2023-03-26T04:27:24.531Z,8.35
2023-03-26T04:29:24.517Z,8.36
2023-03-26T04:31:25.083Z,8.36
2023-03-26T04:33:24.644Z,8.37
2023-03-26T04:35:24.610Z,8.34
2023-03-26T04:38:47.325Z,8.32
2023-03-26T04:40:47.301Z,8.34
2023-03-26T04:42:47.258Z,8.24
2023-03-26T04:44:47.268Z,8.53
2023-03-26T04:46:47.303Z,8.66
2023-03-26T04:48:47.234Z,8.75
2023-03-26T04:50:47.247Z,8.46
2023-03-26T04:53:16.129Z,8.77
2023-03-26T04:55:16.054Z,8.84
2023-03-26T04:57:16.075Z,9.01
2023-03-26T04:59:16.079Z,9.09
2023-03-26T05:01:16.097Z,9.08
2023-03-26T05:03:16.097Z,9.17
2023-03-26T05:05:16.043Z,9.24
2023-03-26T05:07:16.087Z,9.23
2023-03-26T05:08:52.460Z,9.28
2023-03-26T05:10:52.624Z,9.32
2023-03-26T05:12:52.468Z,9.35
2023-03-26T05:14:52.602Z,9.37
2023-03-26T05:16:52.612Z,9.22
2023-03-26T05:18:52.462Z,9.2
2023-03-26T05:20:52.523Z,9.21
2023-03-26T05:23:46.899Z,9.38
2023-03-26T05:25:46.936Z,9.31
2023-03-26T05:27:46.903Z,9.21
2023-03-26T05:29:47.321Z,9.52
2023-03-26T05:31:47.223Z,9.99
2023-03-26T05:33:47.286Z,10.42
2023-03-26T05:35:47.302Z,10.12
2023-03-26T05:38:52.714Z,10.23
2023-03-26T05:40:53.135Z,10.3
2023-03-26T05:42:52.863Z,11.47
2023-03-26T05:44:52.716Z,12.56
2023-03-26T05:46:52.772Z,13.27
2023-03-26T05:48:52.817Z,13.52
2023-03-26T05:50:53.024Z,13.4
2023-03-26T05:54:46.832Z,12.73
2023-03-26T05:56:46.885Z,12.25
2023-03-26T05:58:46.968Z,12.52
2023-03-26T06:00:46.888Z,11.87
2023-03-26T06:02:47.054Z,11.92
2023-03-26T06:04:47.047Z,11.73
2023-03-26T06:06:46.852Z,11.61
2023-03-26T06:09:12.123Z,12.24
2023-03-26T06:11:12.166Z,12.72
2023-03-26T06:13:12.247Z,12.85
2023-03-26T06:15:12.149Z,12.96
2023-03-26T06:17:12.137Z,12.27
2023-03-26T06:19:12.250Z,11.51
2023-03-26T06:21:12.225Z,11.85
2023-03-26T06:24:38.398Z,13.18
2023-03-26T06:26:38.314Z,12.7
2023-03-26T06:28:38.432Z,12.8
2023-03-26T06:30:38.455Z,13.44
2023-03-26T06:32:38.417Z,13.62
2023-03-26T06:34:38.342Z,13.11
2023-03-26T06:36:38.295Z,12.86
2023-03-26T06:39:57.521Z,13.26
2023-03-26T06:41:57.457Z,13.02
2023-03-26T06:43:57.494Z,13.51
2023-03-26T06:45:57.509Z,13.03
2023-03-26T06:47:57.485Z,13
2023-03-26T06:49:57.500Z,12.79
2023-03-26T06:51:57.476Z,13.06
2023-03-26T06:55:03.576Z,14.43
2023-03-26T06:57:03.589Z,14.92
2023-03-26T06:59:03.537Z,13.86
2023-03-26T07:01:03.563Z,13.69
2023-03-26T07:03:03.566Z,12.98
2023-03-26T07:05:03.576Z,13.14
2023-03-26T07:07:03.564Z,13.49
2023-03-26T07:09:53.704Z,14.29
2023-03-26T07:11:54.002Z,14.08
2023-03-26T07:13:53.663Z,13.88
2023-03-26T07:15:53.737Z,14.32
2023-03-26T07:17:53.706Z,14.34
2023-03-26T07:19:53.744Z,13.96
2023-03-26T07:21:53.656Z,14.04
2023-03-26T07:23:55.619Z,14.06
2023-03-26T07:25:41.038Z,13.26
2023-03-26T07:27:40.976Z,13.35
2023-03-26T07:29:40.970Z,13.66
2023-03-26T07:31:41.033Z,13.81
2023-03-26T07:33:41.168Z,14.97
2023-03-26T07:35:41.015Z,14.77
2023-03-26T07:37:41.004Z,14.47
2023-03-26T07:40:58.627Z,14.82
2023-03-26T07:42:58.271Z,14.48
2023-03-26T07:44:58.309Z,14.75
2023-03-26T07:46:58.313Z,14.53
2023-03-26T07:48:58.392Z,15.2
2023-03-26T07:50:58.375Z,14.82
2023-03-26T07:52:58.479Z,15.35
2023-03-26T07:56:11.940Z,14.18
2023-03-26T07:58:11.889Z,13.21
2023-03-26T08:00:11.841Z,13.87
2023-03-26T08:02:11.870Z,14.63
2023-03-26T08:04:23.488Z,14.84
2023-03-26T08:06:11.819Z,13.82
2023-03-26T08:08:11.793Z,13.68
2023-03-26T08:11:16.073Z,14.76
2023-03-26T08:13:15.982Z,14.68
2023-03-26T08:15:16.052Z,14.85
2023-03-26T08:17:15.996Z,14.97
2023-03-26T08:19:16.052Z,15.28
2023-03-26T08:21:16.003Z,14.3
2023-03-26T08:23:16.056Z,13.41
2023-03-26T08:25:57.778Z,13.37
2023-03-26T08:27:57.753Z,13.66
2023-03-26T08:29:57.769Z,14.71
2023-03-26T08:31:57.738Z,15.13
2023-03-26T08:33:57.770Z,15.16
2023-03-26T08:35:57.872Z,15.35
2023-03-26T08:37:57.747Z,14.53
2023-03-26T08:41:46.235Z,15.25
2023-03-26T08:43:46.256Z,15.88
2023-03-26T08:45:46.381Z,15.49
2023-03-26T08:47:46.311Z,15.7
2023-03-26T08:49:46.230Z,15.65
2023-03-26T08:51:46.208Z,15.6
2023-03-26T08:53:46.228Z,15.08
2023-03-26T08:56:54.186Z,15.57
2023-03-26T08:58:54.182Z,14.14
2023-03-26T09:00:54.296Z,14.89
2023-03-26T09:02:54.453Z,14.66
2023-03-26T09:04:54.117Z,15.87
2023-03-26T09:06:54.118Z,15.16
2023-03-26T09:08:54.792Z,14.48
2023-03-26T09:11:22.174Z,15.55
2023-03-26T09:13:22.037Z,16.58
2023-03-26T09:15:22.050Z,16.1
2023-03-26T09:17:22.325Z,16.45
2023-03-26T09:19:21.968Z,16.4
2023-03-26T09:21:22.027Z,16.99
2023-03-26T09:23:22.098Z,16.33
2023-03-26T09:26:58.559Z,14.33
2023-03-26T09:28:58.506Z,15.19
2023-03-26T09:30:58.569Z,15.8
2023-03-26T09:32:58.569Z,16.36
2023-03-26T09:34:58.506Z,15.9
2023-03-26T09:36:58.572Z,15.3
2023-03-26T09:38:58.593Z,15.3
2023-03-26T09:42:02.997Z,15.69
2023-03-26T09:44:02.916Z,15.86
2023-03-26T09:46:02.994Z,16.32
2023-03-26T09:48:03.007Z,16.03
2023-03-26T09:50:03.131Z,16.5
2023-03-26T09:52:02.964Z,16.66
2023-03-26T09:54:02.765Z,16.93
2023-03-26T09:56:40.379Z,16.2
2023-03-26T09:58:40.351Z,16.94
2023-03-26T10:00:40.385Z,16.22
2023-03-26T10:02:45.262Z,17.22
2023-03-26T10:04:40.527Z,16.47
2023-03-26T10:06:40.457Z,17.38
2023-03-26T10:08:40.338Z,15.98
2023-03-26T10:10:40.383Z,16.59
2023-03-26T10:11:57.312Z,17.62
2023-03-26T10:13:57.539Z,17.17
2023-03-26T10:15:57.272Z,16.25
2023-03-26T10:17:57.407Z,17.44
2023-03-26T10:19:57.304Z,17.41
2023-03-26T10:21:57.349Z,16.71
2023-03-26T10:23:57.301Z,16.69
2023-03-26T10:27:12.574Z,18.03
2023-03-26T10:29:12.541Z,17.46
2023-03-26T10:31:12.636Z,17.24
2023-03-26T10:33:12.596Z,18.11
2023-03-26T10:35:12.585Z,17.65
2023-03-26T10:37:12.597Z,17.08
2023-03-26T10:39:36.067Z,17.62
2023-03-26T10:42:22.701Z,17.14
2023-03-26T10:44:22.650Z,16.83
2023-03-26T10:46:22.550Z,17.76
2023-03-26T10:48:22.556Z,17.94
2023-03-26T10:50:22.707Z,18.06
2023-03-26T10:52:22.568Z,17.51
2023-03-26T10:54:22.602Z,17.04
2023-03-26T10:57:53.237Z,16.89
2023-03-26T10:59:53.299Z,16.86
2023-03-26T11:01:53.241Z,16.85
2023-03-26T11:03:53.308Z,16.51
2023-03-26T11:05:53.401Z,17.37
2023-03-26T11:07:53.258Z,17.49
2023-03-26T11:09:53.213Z,18.36
2023-03-26T11:13:02.573Z,18.96
2023-03-26T11:15:02.201Z,19.54
2023-03-26T11:17:02.117Z,19.59
2023-03-26T11:19:03.300Z,19.44
2023-03-26T11:21:18.312Z,19.76
2023-03-26T11:23:02.311Z,19.26
2023-03-26T11:25:03.292Z,18.29
2023-03-26T11:28:26.330Z,17.63
2023-03-26T11:30:26.456Z,17.35
2023-03-26T11:32:26.472Z,18.41
2023-03-26T11:34:26.366Z,18.73
2023-03-26T11:36:26.436Z,18.5
2023-03-26T11:38:26.654Z,18.48
2023-03-26T11:40:26.343Z,18.94
2023-03-26T11:42:51.188Z,18.79
2023-03-26T11:44:51.371Z,19.05
2023-03-26T11:46:51.185Z,19.1
2023-03-26T11:48:51.246Z,19.61
2023-03-26T11:50:51.183Z,20.09
2023-03-26T11:52:51.172Z,20.28
2023-03-26T11:54:51.158Z,19.39
2023-03-26T11:57:04.181Z,19.6
2023-03-26T11:58:58.839Z,20.1
2023-03-26T12:00:59.218Z,20.14
2023-03-26T12:02:58.993Z,20
2023-03-26T12:04:58.980Z,20.06
2023-03-26T12:06:59.263Z,19.25
2023-03-26T12:08:58.842Z,18.72
2023-03-26T12:10:58.820Z,19
2023-03-26T12:13:57.774Z,19.63
2023-03-26T12:15:57.731Z,20.08
2023-03-26T12:17:57.826Z,20.36
2023-03-26T12:19:57.741Z,19.97
2023-03-26T12:21:57.740Z,19.6
2023-03-26T12:23:57.831Z,19.89
2023-03-26T12:25:57.743Z,20.22
2023-03-26T12:29:13.389Z,20.28
2023-03-26T12:31:13.398Z,20.04
2023-03-26T12:33:13.407Z,19.03
2023-03-26T12:35:13.444Z,18.21
2023-03-26T12:37:13.363Z,17.91
2023-03-26T12:39:16.114Z,17.26
2023-03-26T12:42:26.246Z,17.51
2023-03-26T12:44:52.142Z,17.27
2023-03-26T12:47:46.329Z,18.06
2023-03-26T12:48:24.515Z,19.06
2023-03-26T12:50:33.935Z,18.24
2023-03-26T12:52:24.577Z,16.98
2023-03-26T12:54:24.551Z,17.1
2023-03-26T12:56:24.750Z,18.47
2023-03-26T12:59:25.266Z,19.24
2023-03-26T13:01:25.214Z,19.26
2023-03-26T13:03:25.406Z,19.6
2023-03-26T13:05:25.296Z,19.68
2023-03-26T13:07:25.403Z,19.7
2023-03-26T13:09:25.240Z,19.78
2023-03-26T13:11:25.239Z,19.78
2023-03-26T13:14:32.375Z,18.88
2023-03-26T13:16:32.571Z,19.46
2023-03-26T13:18:32.438Z,19.6
2023-03-26T13:20:32.355Z,19.64
2023-03-26T13:22:32.346Z,19.49
2023-03-26T13:24:32.469Z,18.96
2023-03-26T13:26:32.415Z,17.77
2023-03-26T13:29:51.888Z,18.87
2023-03-26T13:31:51.856Z,19.09
2023-03-26T13:33:51.896Z,18.77
2023-03-26T13:35:51.884Z,19.18
2023-03-26T13:37:51.866Z,19.27
2023-03-26T13:39:51.898Z,19.02
2023-03-26T13:41:51.882Z,18.4
2023-03-26T13:44:29.998Z,17.87
2023-03-26T13:46:30.028Z,17.76
2023-03-26T13:48:30.042Z,18.49
2023-03-26T13:50:29.964Z,18.52
2023-03-26T13:52:30.002Z,18.43
2023-03-26T13:54:29.973Z,18.65
2023-03-26T13:56:30.020Z,17.78
2023-03-26T13:59:39.607Z,17.8
2023-03-26T14:01:39.480Z,17.88
2023-03-26T14:03:39.330Z,17.78
2023-03-26T14:05:39.415Z,17.79
2023-03-26T14:07:39.333Z,17.81
2023-03-26T14:09:39.389Z,17.18
2023-03-26T14:11:39.410Z,16.79
2023-03-26T14:15:16.619Z,17.26
2023-03-26T14:17:16.574Z,17.62
2023-03-26T14:19:16.677Z,17.83
2023-03-26T14:21:16.522Z,17.97
2023-03-26T14:23:16.476Z,17.53
2023-03-26T14:25:16.502Z,17.53
2023-03-26T14:27:16.496Z,17.33
2023-03-26T14:30:18.038Z,17.84
2023-03-26T14:32:24.070Z,17.94
2023-03-26T14:34:18.026Z,18.08
2023-03-26T14:36:18.086Z,18.24
2023-03-26T14:38:18.018Z,17.91
2023-03-26T14:40:18.070Z,17.67
2023-03-26T14:42:18.112Z,17.77
2023-03-26T14:45:40.630Z,17.88
2023-03-26T14:47:40.573Z,17.58
2023-03-26T14:49:40.485Z,17.45
2023-03-26T14:51:40.656Z,17.33
2023-03-26T14:53:40.603Z,17.26
2023-03-26T14:55:40.409Z,17.46
2023-03-26T14:57:40.475Z,17.63
2023-03-26T15:00:11.982Z,17.86
2023-03-26T15:02:12.163Z,17.24
2023-03-26T15:04:11.992Z,17.33
2023-03-26T15:06:12.026Z,17.57
2023-03-26T15:08:11.953Z,17.79
2023-03-26T15:10:12.048Z,17.68
2023-03-26T15:12:13.513Z,17.32
2023-03-26T15:15:42.540Z,17.05
2023-03-26T15:17:42.520Z,16.76
2023-03-26T15:19:42.514Z,16.83
2023-03-26T15:21:42.530Z,16.74
2023-03-26T15:23:42.501Z,16.95
2023-03-26T15:25:42.518Z,16.92
2023-03-26T15:27:42.517Z,16.83
2023-03-26T15:30:45.210Z,16.63
2023-03-26T15:32:45.342Z,16.75
2023-03-26T15:34:45.218Z,16.68
2023-03-26T15:36:45.256Z,16.55
2023-03-26T15:38:45.460Z,16.43
2023-03-26T15:40:45.212Z,16.45
2023-03-26T15:42:45.210Z,16.41
2023-03-26T15:46:06.390Z,16.17
2023-03-26T15:48:06.871Z,16.24
2023-03-26T15:50:06.488Z,16.35
2023-03-26T15:52:06.257Z,16.22
2023-03-26T15:54:06.300Z,16.2
2023-03-26T15:56:06.368Z,16.2
2023-03-26T15:58:06.548Z,16.14
2023-03-26T16:01:08.163Z,16.14
2023-03-26T16:03:07.928Z,16.07
2023-03-26T16:05:08.083Z,15.87
2023-03-26T16:07:07.998Z,15.76
2023-03-26T16:09:08.045Z,15.63
2023-03-26T16:11:07.953Z,15.52
2023-03-26T16:13:08.123Z,15.32
2023-03-26T16:15:53.394Z,15.17
2023-03-26T16:17:53.327Z,14.85
2023-03-26T16:19:53.071Z,14.9
2023-03-26T16:21:53.083Z,14.77
2023-03-26T16:23:53.297Z,14.65
2023-03-26T16:25:53.051Z,14.54
2023-03-26T16:27:53.179Z,14.42
2023-03-26T16:29:53.071Z,14.27
2023-03-26T16:31:23.309Z,14.27
2023-03-26T16:33:11.017Z,14.07
2023-03-26T16:35:11.052Z,13.88
2023-03-26T16:37:10.949Z,13.92
2023-03-26T16:39:11.069Z,13.87
2023-03-26T16:41:10.964Z,13.77
2023-03-26T16:43:10.934Z,13.59
2023-03-26T16:45:10.955Z,13.56
2023-03-26T16:47:08.472Z,13.37
2023-03-26T16:49:08.491Z,13.1
2023-03-26T16:51:08.458Z,13.08
2023-03-26T16:53:08.464Z,13.14
2023-03-26T16:55:08.559Z,13.06
2023-03-26T16:57:08.480Z,12.99
2023-03-26T16:59:08.493Z,12.9
2023-03-26T17:01:52.014Z,12.83
2023-03-26T17:03:52.054Z,12.75
2023-03-26T17:05:52.194Z,12.69
2023-03-26T17:07:51.949Z,12.62
2023-03-26T17:09:52.019Z,12.61
2023-03-26T17:11:52.029Z,12.5
2023-03-26T17:13:52.096Z,12.43
2023-03-26T17:17:05.083Z,12.25
2023-03-26T17:19:05.046Z,12.15
2023-03-26T17:21:05.110Z,12.23
2023-03-26T17:23:05.199Z,12.18
2023-03-26T17:25:05.116Z,12.15
2023-03-26T17:27:05.113Z,12.14
2023-03-26T17:29:05.073Z,12.08
2023-03-26T17:32:28.464Z,12.01
2023-03-26T17:34:28.112Z,12
2023-03-26T17:36:28.083Z,11.82
2023-03-26T17:38:28.179Z,11.72
2023-03-26T17:40:28.263Z,11.69
2023-03-26T17:42:28.044Z,11.63
2023-03-26T17:44:28.257Z,11.57
2023-03-26T17:47:28.533Z,11.51
2023-03-26T17:49:28.603Z,11.55
2023-03-26T17:51:28.359Z,11.53
2023-03-26T17:53:28.274Z,11.49
2023-03-26T17:55:28.237Z,11.31
2023-03-26T17:57:28.409Z,11.29
2023-03-26T17:59:28.326Z,11.07
2023-03-26T18:02:59.927Z,11.22
2023-03-26T18:04:59.760Z,11.1
2023-03-26T18:06:59.806Z,11.1
2023-03-26T18:08:59.678Z,11.09
2023-03-26T18:10:59.927Z,11.03
2023-03-26T18:12:59.673Z,10.88
2023-03-26T18:14:59.863Z,10.97
2023-03-26T18:17:59.856Z,10.96
2023-03-26T18:19:59.544Z,10.86
2023-03-26T18:21:59.723Z,10.83
2023-03-26T18:23:59.844Z,10.73
2023-03-26T18:25:59.483Z,10.74
2023-03-26T18:27:59.690Z,10.72
2023-03-26T18:30:01.505Z,10.79
2023-03-26T18:33:15.397Z,10.62
2023-03-26T18:35:15.170Z,10.65
2023-03-26T18:37:15.241Z,10.66
2023-03-26T18:39:15.278Z,10.56
2023-03-26T18:41:15.105Z,10.51
2023-03-26T18:43:22.170Z,10.51
2023-03-26T18:45:15.243Z,10.56
2023-03-26T18:48:27.679Z,10.48
2023-03-26T18:50:27.636Z,10.37
2023-03-26T18:52:27.600Z,10.39
2023-03-26T18:54:27.701Z,10.35
2023-03-26T18:56:27.572Z,10.31
2023-03-26T18:58:27.608Z,10.37
2023-03-26T19:00:27.599Z,10.4
2023-03-26T19:03:07.734Z,10.35
2023-03-26T19:05:07.663Z,10.24
2023-03-26T19:07:07.654Z,10.22
2023-03-26T19:09:13.671Z,10.14
2023-03-26T19:11:07.570Z,10.09
2023-03-26T19:13:07.629Z,10.07
2023-03-26T19:15:07.667Z,10.04
2023-03-26T19:18:27.956Z,9.95
2023-03-26T19:20:28.127Z,9.93
2023-03-26T19:22:27.986Z,9.85
2023-03-26T19:24:28.294Z,9.77
2023-03-26T19:26:28.024Z,9.7
2023-03-26T19:28:28.187Z,9.71
2023-03-26T19:30:28.370Z,9.68
2023-03-26T19:33:27.246Z,9.78
2023-03-26T19:35:27.235Z,9.75
2023-03-26T19:37:27.253Z,9.66
2023-03-26T19:39:36.704Z,9.66
2023-03-26T19:41:27.251Z,9.63
2023-03-26T19:43:27.190Z,9.6
2023-03-26T19:45:27.175Z,9.62
2023-03-26T19:48:46.430Z,9.61
2023-03-26T19:50:39.522Z,9.54
2023-03-26T19:52:39.576Z,9.51
2023-03-26T19:54:39.505Z,9.48
2023-03-26T19:56:39.561Z,9.39
2023-03-26T19:58:39.566Z,9.34
2023-03-26T20:00:39.515Z,9.34
2023-03-26T20:03:23.858Z,9.17
2023-03-26T20:05:23.810Z,9.2
2023-03-26T20:07:35.182Z,9.11
2023-03-26T20:09:23.877Z,9.18
2023-03-26T20:11:23.846Z,9.11
2023-03-26T20:13:23.904Z,9.02
2023-03-26T20:15:23.833Z,8.98
2023-03-26T20:17:23.788Z,8.92
2023-03-26T20:19:30.336Z,8.97
2023-03-26T20:21:30.465Z,9.01
2023-03-26T20:23:30.473Z,8.88
2023-03-26T20:25:30.918Z,8.92
2023-03-26T20:27:30.320Z,8.93
2023-03-26T20:29:30.683Z,8.88
2023-03-26T20:31:30.581Z,8.93
2023-03-26T20:33:52.670Z,8.8
2023-03-26T20:35:52.807Z,8.74
2023-03-26T20:37:52.670Z,8.69
2023-03-26T20:39:52.719Z,8.55
2023-03-26T20:41:52.671Z,8.54
2023-03-26T20:43:52.668Z,8.49
2023-03-26T20:45:52.670Z,8.42
2023-03-26T20:47:53.032Z,8.46
2023-03-26T20:49:22.970Z,8.47
2023-03-26T20:51:22.900Z,8.5
2023-03-26T20:53:22.845Z,8.38
2023-03-26T20:55:22.879Z,8.34
2023-03-26T20:57:22.894Z,8.37
2023-03-26T20:59:23.026Z,8.26
2023-03-26T21:01:23.115Z,8.26
2023-03-26T21:04:26.038Z,8.3
2023-03-26T21:06:25.968Z,8.22
2023-03-26T21:08:25.958Z,8.13
2023-03-26T21:10:25.978Z,8.14
2023-03-26T21:12:26.053Z,8.16
2023-03-26T21:14:25.984Z,8.13
2023-03-26T21:16:26.087Z,8.05
2023-03-26T21:19:35.429Z,8.05
2023-03-26T21:21:35.327Z,8.1
2023-03-26T21:23:36.372Z,8.26
2023-03-26T21:25:35.305Z,8.26
2023-03-26T21:27:35.377Z,8.37
2023-03-26T21:29:35.350Z,8.41
2023-03-26T21:31:35.322Z,8.39
2023-03-26T21:35:01.641Z,8.36
2023-03-26T21:37:01.407Z,8.47
2023-03-26T21:39:01.409Z,8.54
2023-03-26T21:41:01.625Z,8.43
2023-03-26T21:43:01.476Z,8.47
2023-03-26T21:45:01.514Z,8.42
2023-03-26T21:47:01.562Z,8.4
2023-03-26T21:50:01.790Z,8.53
2023-03-26T21:52:01.797Z,8.5
2023-03-26T21:54:01.802Z,8.41
2023-03-26T21:56:01.793Z,8.47
2023-03-26T21:58:01.745Z,8.39
2023-03-26T22:00:01.761Z,8.43
2023-03-26T22:02:01.771Z,8.3
2023-03-26T22:05:06.948Z,8.11
2023-03-26T22:07:06.979Z,8.12
2023-03-26T22:09:06.919Z,7.96
2023-03-26T22:11:06.938Z,7.95
2023-03-26T22:13:06.889Z,7.87
2023-03-26T22:15:06.922Z,7.65
2023-03-26T22:17:06.950Z,7.59
2023-03-26T22:20:00.206Z,7.72
2023-03-26T22:22:00.348Z,7.67
2023-03-26T22:24:00.508Z,7.55
2023-03-26T22:26:00.600Z,7.58
2023-03-26T22:28:00.026Z,7.58
2023-03-26T22:29:59.912Z,7.54
2023-03-26T22:31:59.960Z,7.47
2023-03-26T22:33:59.923Z,7.45
2023-03-26T22:35:46.589Z,7.42
2023-03-26T22:37:46.621Z,7.25
2023-03-26T22:39:46.597Z,7.26
2023-03-26T22:41:46.635Z,7.19
2023-03-26T22:43:46.579Z,7.17
2023-03-26T22:45:46.615Z,7.29
2023-03-26T22:47:46.929Z,7.41
2023-03-26T22:50:46.907Z,7.19
2023-03-26T22:52:47.053Z,7.19
2023-03-26T22:54:46.854Z,7.25
2023-03-26T22:56:46.783Z,7.18
2023-03-26T22:58:46.715Z,7.23
2023-03-26T23:00:46.761Z,7.15
2023-03-26T23:02:46.775Z,7.12
2023-03-26T23:05:52.042Z,7.13
2023-03-26T23:07:52.009Z,7.09
2023-03-26T23:09:51.999Z,7.05
2023-03-26T23:11:52.021Z,6.81
2023-03-26T23:13:52.106Z,7.01
2023-03-26T23:15:52.082Z,6.93
2023-03-26T23:17:54.581Z,7.03
2023-03-26T23:20:47.297Z,7.17
2023-03-26T23:22:47.165Z,7.13
2023-03-26T23:24:47.177Z,6.93
2023-03-26T23:26:50.893Z,6.94
2023-03-26T23:28:47.199Z,7.06
2023-03-26T23:30:47.170Z,7.01
2023-03-26T23:32:47.166Z,7
2023-03-26T23:34:51.968Z,7.06
2023-03-26T23:36:35.520Z,7.09
2023-03-26T23:38:43.275Z,7.09
2023-03-26T23:40:35.512Z,6.97
2023-03-26T23:42:35.509Z,6.89
2023-03-26T23:44:35.531Z,6.74
2023-03-26T23:46:35.510Z,6.85
2023-03-26T23:48:35.547Z,6.57
2023-03-26T23:51:52.966Z,6.56
2023-03-26T23:53:53.044Z,6.72
2023-03-26T23:55:52.975Z,6.77
2023-03-26T23:57:52.981Z,6.63
2023-03-26T23:59:53.012Z,6.55
